Time;durP1;ratioP1;P1;durP2;ratioP2;P2;SDS_P1;SDS_P2;PMS_P1;PMS_P2;Temp;Humidity;BMP_temperature;BMP_pressure;BME280_temperature;BME280_humidity;BME280_pressure;Samples;Min_cycle;Max_cycle;Signal;HPM_P1;HPM_P2
2023/01/26 00:01:28;;;;;;;38.70;11.23;;;-0.20;99.90;;;;;;5066193;28;20029;-40
2023/01/26 00:03:55;;;;;;;33.47;11.82;;;-0.20;99.90;;;;;;5061618;28;20049;-40
2023/01/26 00:06:22;;;;;;;36.38;12.40;;;-0.20;99.90;;;;;;5066789;28;20044;-40
2023/01/26 00:08:50;;;;;;;34.55;10.82;;;-0.20;99.90;;;;;;5067560;28;20051;-37
2023/01/26 00:11:23;;;;;;;34.25;11.40;;;-0.20;99.90;;;;;;5067681;28;20052;-41
2023/01/26 00:13:53;;;;;;;37.83;11.98;;;-0.20;99.90;;;;;;5069119;28;20116;-40
2023/01/26 00:16:19;;;;;;;33.33;10.63;;;-0.20;99.90;;;;;;5068839;28;20040;-40
2023/01/26 00:18:45;;;;;;;36.47;12.02;;;-0.20;99.90;;;;;;5064661;28;20493;-46
2023/01/26 00:21:19;;;;;;;38.80;13.07;;;-0.20;99.90;;;;;;5066753;28;20032;-38
2023/01/26 00:23:46;;;;;;;38.35;11.68;;;-0.10;99.90;;;;;;5063195;28;20047;-41
2023/01/26 00:26:21;;;;;;;36.90;10.82;;;-0.10;99.90;;;;;;5061581;28;20052;-39
2023/01/26 00:28:46;;;;;;;33.70;10.40;;;-0.10;99.90;;;;;;5066063;28;20166;-39
2023/01/26 00:31:15;;;;;;;31.02;9.77;;;-0.10;99.90;;;;;;5064216;28;20119;-39
2023/01/26 00:33:41;;;;;;;35.78;12.40;;;-0.10;99.90;;;;;;5064438;28;20110;-39
2023/01/26 00:36:08;;;;;;;32.75;11.85;;;-0.10;99.90;;;;;;5063394;28;20497;-41
2023/01/26 00:38:33;;;;;;;36.75;11.73;;;-0.10;99.90;;;;;;5075940;28;20032;-41
2023/01/26 00:40:59;;;;;;;34.13;12.02;;;-0.10;99.90;;;;;;5059734;28;20043;-38
2023/01/26 00:43:25;;;;;;;34.70;11.45;;;-0.10;99.90;;;;;;5059715;28;20041;-41
2023/01/26 00:45:51;;;;;;;33.88;11.25;;;-0.10;99.90;;;;;;5065697;28;20041;-40
2023/01/26 00:48:16;;;;;;;34.90;12.05;;;-0.10;99.90;;;;;;5060303;28;20041;-39
2023/01/26 00:50:42;;;;;;;32.63;11.93;;;-0.10;99.90;;;;;;5063436;28;20045;-39
2023/01/26 00:53:09;;;;;;;46.10;13.10;;;-0.10;99.90;;;;;;5036539;28;20422;-39
2023/01/26 00:55:34;;;;;;;35.55;11.75;;;0.00;99.90;;;;;;5044388;28;20053;-41
2023/01/26 00:58:02;;;;;;;35.33;11.48;;;0.00;99.90;;;;;;5031011;28;21182;-39
2023/01/26 01:00:28;;;;;;;33.63;11.52;;;0.00;99.90;;;;;;5039002;28;20095;-45
2023/01/26 01:02:55;;;;;;;36.33;11.65;;;0.00;99.90;;;;;;5042048;28;20072;-40
2023/01/26 01:05:22;;;;;;;32.63;10.27;;;0.00;99.90;;;;;;5043816;28;20561;-39
2023/01/26 01:07:47;;;;;;;35.33;11.25;;;0.00;99.90;;;;;;5044106;28;20402;-39
2023/01/26 01:10:13;;;;;;;32.53;10.70;;;0.00;99.90;;;;;;5045825;28;20053;-39
2023/01/26 01:12:39;;;;;;;32.53;9.57;;;0.00;99.90;;;;;;5039427;28;20049;-38
2023/01/26 01:15:05;;;;;;;35.38;11.15;;;0.00;99.90;;;;;;5048757;28;20075;-39
2023/01/26 01:17:31;;;;;;;36.40;11.27;;;0.00;99.90;;;;;;5044455;28;20040;-38
2023/01/26 01:19:57;;;;;;;33.13;11.70;;;0.00;99.90;;;;;;5046519;28;20127;-40
2023/01/26 01:22:22;;;;;;;38.22;13.00;;;0.10;99.90;;;;;;5041257;28;20037;-38
2023/01/26 01:24:48;;;;;;;37.55;10.68;;;0.00;99.90;;;;;;5045798;28;20111;-38
2023/01/26 01:27:14;;;;;;;31.73;10.93;;;0.00;99.90;;;;;;5042603;28;20060;-38
2023/01/26 01:29:39;;;;;;;29.08;9.30;;;0.10;99.90;;;;;;5043940;28;20513;-39
2023/01/26 01:32:05;;;;;;;37.75;13.25;;;0.10;99.90;;;;;;5045720;28;20069;-39
2023/01/26 01:34:31;;;;;;;35.00;11.93;;;0.00;99.90;;;;;;5044165;28;20056;-39
2023/01/26 01:36:56;;;;;;;35.90;11.35;;;0.10;99.90;;;;;;5043180;28;20037;-39
2023/01/26 01:39:22;;;;;;;40.28;12.15;;;0.10;99.90;;;;;;5045973;28;20059;-38
2023/01/26 01:41:48;;;;;;;32.63;12.00;;;0.10;99.90;;;;;;5044312;28;20538;-39
2023/01/26 01:44:22;;;;;;;36.00;11.93;;;0.10;99.90;;;;;;5039410;28;20040;-50
2023/01/26 01:47:03;;;;;;;33.05;10.57;;;0.10;99.90;;;;;;5041689;28;20512;-39
2023/01/26 01:49:44;;;;;;;40.22;12.57;;;0.10;99.90;;;;;;5043826;28;20045;-47
2023/01/26 01:52:16;;;;;;;39.00;12.02;;;0.10;99.90;;;;;;5052995;28;20056;-44
2023/01/26 01:55:00;;;;;;;33.50;10.27;;;0.10;99.90;;;;;;5066536;28;20067;-48
2023/01/26 01:57:30;;;;;;;47.13;13.13;;;0.10;99.90;;;;;;5059155;28;20049;-39
2023/01/26 02:00:05;;;;;;;38.55;11.35;;;0.10;99.90;;;;;;5061056;28;20598;-47
2023/01/26 02:02:31;;;;;;;39.72;12.57;;;0.10;99.90;;;;;;5067478;28;20051;-48
2023/01/26 02:05:02;;;;;;;39.95;13.63;;;0.10;99.90;;;;;;5063202;28;20049;-40
2023/01/26 02:07:30;;;;;;;39.20;11.57;;;0.10;99.90;;;;;;5061120;28;20043;-39
2023/01/26 02:12:41;;;;;;;42.38;12.32;;;0.10;99.90;;;;;;5064390;28;20042;-38
2023/01/26 02:15:07;;;;;;;32.70;10.30;;;0.10;99.90;;;;;;5063836;28;20463;-38
2023/01/26 02:17:33;;;;;;;34.08;10.55;;;0.10;99.90;;;;;;5057600;28;20445;-38
2023/01/26 02:20:28;;;;;;;38.60;12.00;;;0.10;99.90;;;;;;5060920;28;20032;-37
2023/01/26 02:23:29;;;;;;;38.38;11.50;;;0.10;99.90;;;;;;5058139;28;20646;-38
2023/01/26 02:25:56;;;;;;;39.50;12.63;;;0.10;99.90;;;;;;5063208;28;20055;-39
2023/01/26 02:28:25;;;;;;;37.70;12.18;;;0.10;99.90;;;;;;5063860;28;20127;-39
2023/01/26 02:30:52;;;;;;;37.92;11.48;;;0.10;99.90;;;;;;5059652;28;20041;-40
2023/01/26 02:33:23;;;;;;;40.40;12.57;;;0.10;99.90;;;;;;5066085;28;20136;-40
2023/01/26 02:35:49;;;;;;;42.92;12.82;;;0.10;99.90;;;;;;5059705;28;20060;-40
2023/01/26 02:38:16;;;;;;;37.97;11.30;;;0.10;99.90;;;;;;5063619;28;20036;-39
2023/01/26 02:40:47;;;;;;;42.17;12.85;;;0.10;99.90;;;;;;5067544;28;20051;-41
2023/01/26 02:43:12;;;;;;;42.90;12.40;;;0.10;99.90;;;;;;5061987;28;20056;-39
2023/01/26 02:45:40;;;;;;;42.45;12.20;;;0.10;99.90;;;;;;5063441;28;20033;-41
2023/01/26 02:48:06;;;;;;;43.28;13.13;;;0.10;99.90;;;;;;5060343;28;20029;-43
2023/01/26 02:50:33;;;;;;;44.03;13.40;;;0.20;99.90;;;;;;5059407;28;20068;-40
2023/01/26 02:53:00;;;;;;;42.65;14.13;;;0.10;99.90;;;;;;5061585;28;20540;-42
2023/01/26 02:55:29;;;;;;;48.88;14.25;;;0.20;99.90;;;;;;5061590;28;20486;-43
2023/01/26 02:58:03;;;;;;;42.47;13.57;;;0.10;99.90;;;;;;5065356;28;20083;-40
2023/01/26 03:00:40;;;;;;;40.65;13.60;;;0.10;99.90;;;;;;5063212;28;20036;-41
2023/01/26 03:03:40;;;;;;;44.30;13.45;;;0.10;99.90;;;;;;5058384;28;20549;-37
2023/01/26 03:06:08;;;;;;;45.83;13.35;;;0.10;99.90;;;;;;5062081;28;20094;-42
2023/01/26 03:08:34;;;;;;;38.83;12.00;;;0.10;99.90;;;;;;5066938;28;20039;-42
2023/01/26 03:10:59;;;;;;;42.25;12.60;;;0.10;99.90;;;;;;5065563;28;20411;-42
2023/01/26 03:13:25;;;;;;;39.60;12.70;;;0.20;99.90;;;;;;5064718;28;20068;-41
2023/01/26 03:15:53;;;;;;;43.53;13.60;;;0.20;99.90;;;;;;5054923;28;20132;-42
2023/01/26 03:29:25;;;;;;;37.83;11.82;;;0.20;99.90;;;;;;5068341;28;20050;-39
2023/01/26 03:31:52;;;;;;;35.35;11.38;;;0.20;99.90;;;;;;5063071;28;20044;-40
2023/01/26 03:34:19;;;;;;;38.83;11.07;;;0.20;99.90;;;;;;5065095;28;20432;-40
2023/01/26 03:36:46;;;;;;;42.22;12.60;;;0.30;99.90;;;;;;5064163;28;20040;-39
2023/01/26 03:41:06;;;;;;;37.45;12.07;;;0.30;99.90;;;;;;5061233;28;20666;-39
2023/01/26 03:58:23;;;;;;;32.17;9.15;;;0.30;99.90;;;;;;5070235;28;20052;-43
2023/01/26 04:00:49;;;;;;;35.80;11.05;;;0.30;99.90;;;;;;5062615;28;20037;-43
2023/01/26 04:08:46;;;;;;;35.63;10.82;;;0.30;99.90;;;;;;5062612;28;20119;-41
2023/01/26 04:11:12;;;;;;;26.27;8.77;;;0.40;99.90;;;;;;5069191;28;20037;-41
2023/01/26 04:21:51;;;;;;;33.40;10.82;;;0.40;99.90;;;;;;5056905;28;20387;-42
2023/01/26 04:24:20;;;;;;;32.58;11.07;;;0.40;99.90;;;;;;5068649;28;20135;-40
2023/01/26 04:26:46;;;;;;;35.40;11.52;;;0.40;99.90;;;;;;5065559;28;20123;-42
2023/01/26 04:29:14;;;;;;;37.30;11.38;;;0.40;99.90;;;;;;5065808;28;20598;-42
2023/01/26 04:31:40;;;;;;;34.22;11.20;;;0.40;99.90;;;;;;5067942;28;20041;-42
2023/01/26 04:34:10;;;;;;;29.48;10.57;;;0.40;99.90;;;;;;5068305;28;20544;-41
2023/01/26 04:36:36;;;;;;;34.80;10.25;;;0.40;99.90;;;;;;5065085;28;20359;-46
2023/01/26 04:39:02;;;;;;;30.30;10.43;;;0.40;99.90;;;;;;5068490;28;20456;-43
2023/01/26 04:41:29;;;;;;;36.97;12.23;;;0.40;99.90;;;;;;5063930;28;20119;-42
2023/01/26 04:43:55;;;;;;;32.08;11.65;;;0.50;99.90;;;;;;5065431;28;20055;-42
2023/01/26 04:46:21;;;;;;;32.85;10.38;;;0.50;99.90;;;;;;5063115;28;20120;-43
2023/01/26 04:48:46;;;;;;;33.30;11.52;;;0.50;99.90;;;;;;5064952;28;20538;-42
2023/01/26 04:51:15;;;;;;;35.55;11.30;;;0.50;99.90;;;;;;5063706;28;20615;-45
2023/01/26 04:53:41;;;;;;;42.47;13.00;;;0.50;99.90;;;;;;5064195;28;20041;-41
2023/01/26 04:56:13;;;;;;;43.60;12.82;;;0.50;99.90;;;;;;5064684;28;20033;-39
2023/01/26 04:58:39;;;;;;;35.85;12.25;;;0.50;99.90;;;;;;5063224;28;20481;-38
2023/01/26 05:01:05;;;;;;;39.05;13.23;;;0.50;99.90;;;;;;5063121;28;20032;-42
2023/01/26 05:03:31;;;;;;;39.67;13.43;;;0.50;99.90;;;;;;5061199;28;20044;-40
2023/01/26 05:05:57;;;;;;;40.65;11.85;;;0.50;99.90;;;;;;5061539;28;20078;-44
2023/01/26 05:08:23;;;;;;;37.88;11.95;;;0.50;99.90;;;;;;5066182;28;20566;-40
2023/01/26 05:10:50;;;;;;;38.65;13.32;;;0.50;99.90;;;;;;5066605;28;20037;-42
2023/01/26 05:13:15;;;;;;;38.92;11.90;;;0.50;99.90;;;;;;5066012;28;20534;-44
2023/01/26 05:15:41;;;;;;;37.80;10.98;;;0.50;99.90;;;;;;5076551;28;20190;-46
2023/01/26 05:18:08;;;;;;;45.33;13.45;;;0.50;99.90;;;;;;5059320;28;20036;-42
2023/01/26 05:20:34;;;;;;;43.40;12.18;;;0.60;99.90;;;;;;5060428;28;20036;-42
2023/01/26 05:22:59;;;;;;;39.75;12.90;;;0.60;99.90;;;;;;5062174;28;20367;-42
2023/01/26 05:25:25;;;;;;;37.05;12.82;;;0.60;99.90;;;;;;5058267;28;20191;-43
2023/01/26 05:27:52;;;;;;;31.73;10.80;;;0.60;99.90;;;;;;5058698;28;20498;-52
2023/01/26 05:30:18;;;;;;;42.10;14.20;;;0.60;99.90;;;;;;5065712;28;20052;-41
2023/01/26 05:32:44;;;;;;;34.13;11.02;;;0.60;99.90;;;;;;5063125;28;20066;-39
2023/01/26 05:35:10;;;;;;;41.08;12.80;;;0.60;99.90;;;;;;5079432;28;20380;-42
2023/01/26 05:37:36;;;;;;;39.65;12.82;;;0.60;99.90;;;;;;5060392;28;20036;-40
2023/01/26 05:40:02;;;;;;;45.20;14.13;;;0.60;99.90;;;;;;5062615;28;20041;-40
2023/01/26 05:42:28;;;;;;;37.75;11.38;;;0.60;99.90;;;;;;5054811;28;20037;-44
2023/01/26 05:44:54;;;;;;;41.15;12.88;;;0.60;99.90;;;;;;5057936;28;20456;-40
2023/01/26 05:47:20;;;;;;;37.88;11.10;;;0.60;99.90;;;;;;5060658;28;20032;-41
2023/01/26 05:49:45;;;;;;;40.13;14.88;;;0.60;99.90;;;;;;5060385;28;20496;-43
2023/01/26 05:52:17;;;;;;;47.60;13.75;;;0.60;99.90;;;;;;5059542;28;20067;-42
2023/01/26 05:54:42;;;;;;;36.40;12.63;;;0.60;99.90;;;;;;5062099;28;20056;-49
2023/01/26 05:57:09;;;;;;;45.08;14.30;;;0.60;99.90;;;;;;5065049;28;20123;-41
2023/01/26 05:59:34;;;;;;;43.22;13.23;;;0.60;99.90;;;;;;5063911;28;20111;-42
2023/01/26 06:02:01;;;;;;;43.50;13.65;;;0.70;99.90;;;;;;5063355;28;20397;-41
2023/01/26 06:04:27;;;;;;;51.85;14.68;;;0.60;99.90;;;;;;5063136;28;20044;-42
2023/01/26 06:06:56;;;;;;;47.05;13.77;;;0.60;99.90;;;;;;5063104;28;20044;-40
2023/01/26 06:09:22;;;;;;;41.90;13.50;;;0.70;99.90;;;;;;5064275;28;20115;-43
2023/01/26 06:11:49;;;;;;;49.25;13.77;;;0.60;99.90;;;;;;5058513;28;20040;-41
2023/01/26 06:14:15;;;;;;;49.60;14.95;;;0.60;99.90;;;;;;5058985;28;20127;-37
2023/01/26 06:16:40;;;;;;;62.10;15.32;;;0.70;99.90;;;;;;5053695;28;20486;-44
2023/01/26 06:19:08;;;;;;;51.45;14.77;;;0.70;99.90;;;;;;5060315;28;20139;-41
2023/01/26 06:21:33;;;;;;;62.88;16.98;;;0.70;99.90;;;;;;5055053;28;20043;-38
2023/01/26 06:23:59;;;;;;;63.53;16.02;;;0.70;99.90;;;;;;5059466;28;20041;-42
2023/01/26 06:26:25;;;;;;;62.90;16.85;;;0.70;99.90;;;;;;5056889;28;20036;-42
2023/01/26 06:28:52;;;;;;;50.92;13.23;;;0.70;99.90;;;;;;5062515;28;20052;-42
2023/01/26 06:31:19;;;;;;;39.75;13.15;;;0.70;99.90;;;;;;5062360;28;20051;-41
2023/01/26 06:33:45;;;;;;;66.53;16.90;;;0.70;99.90;;;;;;5063705;28;20048;-41
2023/01/26 06:36:13;;;;;;;67.45;17.85;;;0.70;99.90;;;;;;5057283;28;20033;-44
2023/01/26 06:38:45;;;;;;;44.70;13.07;;;0.70;99.90;;;;;;5065112;28;20674;-41
2023/01/26 06:41:10;;;;;;;41.35;12.55;;;0.70;99.90;;;;;;5059771;28;20036;-45
2023/01/26 06:43:36;;;;;;;64.32;16.45;;;0.70;99.90;;;;;;5055010;28;20508;-40
2023/01/26 06:46:04;;;;;;;69.15;16.98;;;0.70;99.90;;;;;;5055039;28;20044;-40
2023/01/26 06:48:32;;;;;;;65.72;17.05;;;0.70;99.90;;;;;;5059105;28;20588;-42
2023/01/26 06:51:23;;;;;;;54.13;14.70;;;0.80;99.90;;;;;;5063592;28;20408;-43
2023/01/26 06:53:54;;;;;;;79.40;17.55;;;0.70;99.90;;;;;;5077986;28;20052;-38
2023/01/26 06:56:20;;;;;;;63.92;16.55;;;0.70;99.90;;;;;;5073918;28;20044;-41
2023/01/26 06:58:46;;;;;;;63.83;15.73;;;0.80;99.90;;;;;;5074557;28;20107;-38
2023/01/26 07:01:23;;;;;;;94.38;20.17;;;0.80;99.90;;;;;;5078012;28;20471;-40
2023/01/26 07:03:50;;;;;;;89.85;20.20;;;0.80;99.90;;;;;;5049455;28;20131;-39
2023/01/26 07:06:16;;;;;;;59.35;16.30;;;0.80;99.90;;;;;;5078552;28;20034;-41
2023/01/26 07:08:42;;;;;;;52.08;14.98;;;0.80;99.90;;;;;;5084881;28;20606;-41
2023/01/26 07:11:09;;;;;;;88.30;17.38;;;0.80;99.90;;;;;;5086843;28;20123;-41
2023/01/26 07:13:35;;;;;;;67.03;16.98;;;0.80;99.90;;;;;;5088027;28;20047;-41
2023/01/26 07:16:02;;;;;;;47.17;14.25;;;0.80;99.90;;;;;;5075915;28;20082;-37
2023/01/26 07:18:28;;;;;;;70.13;16.35;;;0.80;99.90;;;;;;5085309;28;20035;-42
2023/01/26 07:21:02;;;;;;;46.72;14.48;;;0.80;99.90;;;;;;5083456;28;20380;-41
2023/01/26 07:23:29;;;;;;;45.13;13.27;;;0.80;99.90;;;;;;5082026;28;20046;-40
2023/01/26 07:25:54;;;;;;;54.40;15.73;;;0.80;99.90;;;;;;5086829;28;20081;-39
2023/01/26 07:28:20;;;;;;;49.35;13.57;;;0.90;99.90;;;;;;5087822;28;20032;-49
2023/01/26 07:30:47;;;;;;;86.45;19.00;;;0.90;99.90;;;;;;5086416;28;20562;-42
2023/01/26 07:33:14;;;;;;;60.38;16.33;;;0.90;99.90;;;;;;5088551;28;20096;-42
2023/01/26 07:35:40;;;;;;;82.22;18.55;;;0.90;99.90;;;;;;5085880;28;21025;-40
2023/01/26 07:38:06;;;;;;;45.75;13.50;;;0.90;99.90;;;;;;5075528;28;20032;-40
2023/01/26 07:40:32;;;;;;;48.22;14.25;;;0.90;99.90;;;;;;5079980;28;20032;-41
2023/01/26 07:42:59;;;;;;;45.67;12.75;;;0.90;99.90;;;;;;5084295;28;20074;-42
2023/01/26 07:45:25;;;;;;;79.63;17.90;;;0.90;99.90;;;;;;5075564;28;20595;-41
2023/01/26 07:47:53;;;;;;;136.90;20.90;;;0.90;99.90;;;;;;5087266;28;20082;-42
2023/01/26 07:50:20;;;;;;;85.95;18.33;;;0.90;99.90;;;;;;5079958;28;20036;-46
2023/01/26 07:52:47;;;;;;;66.93;14.95;;;1.00;99.90;;;;;;5078956;28;20098;-46
2023/01/26 07:55:13;;;;;;;79.82;17.75;;;1.00;99.90;;;;;;5085383;28;20052;-41
2023/01/26 07:57:39;;;;;;;58.20;14.38;;;1.00;99.90;;;;;;5083024;28;20036;-41
2023/01/26 08:00:06;;;;;;;92.13;17.77;;;1.00;99.90;;;;;;5081533;28;20123;-41
2023/01/26 08:02:31;;;;;;;55.65;13.65;;;1.00;99.90;;;;;;5079326;28;20364;-43
2023/01/26 08:04:58;;;;;;;73.32;15.38;;;1.10;99.90;;;;;;5078915;28;20051;-51
2023/01/26 08:07:23;;;;;;;62.88;14.77;;;1.10;99.90;;;;;;5080383;28;20119;-41
2023/01/26 08:09:49;;;;;;;37.33;11.57;;;1.10;99.90;;;;;;5081424;28;20119;-42
2023/01/26 08:12:15;;;;;;;44.15;11.80;;;1.10;99.90;;;;;;5081502;28;20066;-41
2023/01/26 08:14:41;;;;;;;63.20;13.95;;;1.10;99.90;;;;;;5085060;28;20507;-41
2023/01/26 08:17:06;;;;;;;51.92;13.05;;;1.10;99.90;;;;;;5087954;28;20573;-39
2023/01/26 08:19:32;;;;;;;54.15;13.40;;;1.10;99.90;;;;;;5089168;28;20067;-40
2023/01/26 08:21:58;;;;;;;38.17;11.32;;;1.10;99.90;;;;;;5082708;28;20040;-40
2023/01/26 08:24:25;;;;;;;40.63;11.52;;;1.00;99.90;;;;;;5081409;28;20119;-41
2023/01/26 08:26:51;;;;;;;45.38;10.63;;;1.00;99.90;;;;;;5064981;28;20549;-41
2023/01/26 08:29:17;;;;;;;39.97;10.70;;;1.00;99.90;;;;;;5071343;28;20150;-43
2023/01/26 08:31:42;;;;;;;31.60;10.25;;;1.00;99.90;;;;;;5067005;28;20524;-42
2023/01/26 08:34:08;;;;;;;43.20;12.13;;;1.00;99.90;;;;;;5069817;28;20040;-40
2023/01/26 08:36:34;;;;;;;30.48;9.05;;;1.00;99.90;;;;;;5067892;28;20042;-42
2023/01/26 08:39:01;;;;;;;33.58;10.00;;;1.00;99.90;;;;;;5087187;28;20726;-42
2023/01/26 08:41:27;;;;;;;38.72;10.70;;;1.00;99.90;;;;;;5085747;28;20067;-39
2023/01/26 08:43:52;;;;;;;34.03;9.45;;;1.00;99.90;;;;;;5085463;28;20132;-41
2023/01/26 08:46:18;;;;;;;36.47;10.00;;;1.10;99.90;;;;;;5083530;28;20522;-41
2023/01/26 08:48:44;;;;;;;26.88;7.82;;;1.10;99.90;;;;;;5084929;28;20044;-42
2023/01/26 08:51:10;;;;;;;35.25;9.27;;;1.20;99.90;;;;;;5078553;28;20068;-43
2023/01/26 08:53:36;;;;;;;39.75;9.50;;;1.30;99.90;;;;;;5078709;28;20108;-42
2023/01/26 08:56:04;;;;;;;38.15;10.15;;;1.30;99.90;;;;;;5090029;28;20487;-43
2023/01/26 08:58:32;;;;;;;33.95;8.25;;;1.40;99.90;;;;;;5084529;28;20512;-40
2023/01/26 09:00:58;;;;;;;44.15;10.13;;;1.40;99.90;;;;;;5078103;28;20052;-41
2023/01/26 09:03:24;;;;;;;31.50;9.57;;;1.50;99.90;;;;;;5083362;28;20040;-41
2023/01/26 09:05:49;;;;;;;30.40;8.13;;;1.50;99.90;;;;;;5086337;28;20485;-43
2023/01/26 09:08:15;;;;;;;29.15;7.53;;;1.60;99.90;;;;;;5078518;28;20041;-44
2023/01/26 09:10:43;;;;;;;45.60;11.07;;;1.70;99.90;;;;;;5084019;28;20040;-40
2023/01/26 09:13:09;;;;;;;38.60;8.95;;;1.70;99.90;;;;;;5081032;28;20083;-45
2023/01/26 09:15:37;;;;;;;28.98;8.88;;;1.90;99.90;;;;;;5087204;28;20072;-41
2023/01/26 09:18:03;;;;;;;30.67;8.60;;;2.00;99.90;;;;;;5089841;28;20045;-40
2023/01/26 09:20:28;;;;;;;52.53;9.48;;;2.10;99.90;;;;;;5084577;28;20096;-44
2023/01/26 09:22:54;;;;;;;32.70;8.10;;;2.30;99.90;;;;;;5083404;28;20031;-40
2023/01/26 09:25:20;;;;;;;33.20;9.95;;;2.40;99.90;;;;;;5084722;28;20122;-42
2023/01/26 09:27:45;;;;;;;37.55;8.45;;;2.50;99.90;;;;;;5087508;28;20145;-40
2023/01/26 09:30:11;;;;;;;33.08;8.00;;;2.60;99.90;;;;;;5084212;28;20039;-40
2023/01/26 09:32:37;;;;;;;45.28;8.45;;;2.70;99.90;;;;;;5086153;28;20048;-42
2023/01/26 09:35:03;;;;;;;25.73;7.70;;;2.70;99.90;;;;;;5081828;28;20040;-44
2023/01/26 09:37:29;;;;;;;41.08;8.82;;;2.80;99.90;;;;;;5081085;28;20146;-41
2023/01/26 09:39:55;;;;;;;36.38;7.25;;;2.90;99.90;;;;;;5076596;28;20067;-42
2023/01/26 09:42:50;;;;;;;23.08;6.57;;;2.90;99.90;;;;;;5083107;28;20047;-44
2023/01/26 09:45:42;;;;;;;25.33;5.40;;;3.00;99.90;;;;;;5080249;28;20043;-42
2023/01/26 09:48:28;;;;;;;29.57;6.30;;;3.10;99.90;;;;;;5083211;28;20044;-42
2023/01/26 09:51:09;;;;;;;32.15;5.82;;;3.20;99.90;;;;;;5079817;28;20778;-44
2023/01/26 09:53:49;;;;;;;24.67;4.53;;;3.30;99.90;;;;;;5083860;28;20504;-44
2023/01/26 09:56:18;;;;;;;26.17;5.05;;;3.40;99.90;;;;;;5087341;28;20036;-44
2023/01/26 09:58:59;;;;;;;38.97;5.50;;;3.60;99.90;;;;;;5083253;28;20039;-42
2023/01/26 10:02:06;;;;;;;30.50;5.22;;;3.70;99.90;;;;;;5074862;28;20036;-39
2023/01/26 10:04:36;;;;;;;25.75;4.55;;;3.90;99.90;;;;;;5042192;28;20067;-41
2023/01/26 10:07:10;;;;;;;35.42;6.07;;;4.10;99.90;;;;;;5080815;28;20516;-41
2023/01/26 10:09:38;;;;;;;27.60;3.85;;;4.30;99.90;;;;;;5081103;28;20441;-47
2023/01/26 10:12:13;;;;;;;25.73;4.38;;;4.50;99.90;;;;;;5083278;28;20115;-43
2023/01/26 10:14:44;;;;;;;23.33;3.70;;;4.60;99.90;;;;;;5083042;28;20066;-45
2023/01/26 10:17:24;;;;;;;29.88;4.50;;;4.70;99.90;;;;;;5081463;28;20035;-46
2023/01/26 10:20:02;;;;;;;26.50;3.00;;;4.70;99.90;;;;;;5085423;28;20047;-43
2023/01/26 10:22:37;;;;;;;17.98;2.55;;;4.80;99.90;;;;;;5084232;28;20032;-45
2023/01/26 10:25:17;;;;;;;32.67;4.07;;;4.90;99.90;;;;;;5082572;28;20052;-39
2023/01/26 10:27:47;;;;;;;28.38;3.67;;;4.90;99.90;;;;;;5076196;28;20193;-42
2023/01/26 10:30:17;;;;;;;27.05;3.20;;;5.00;99.90;;;;;;5081021;28;20053;-40
2023/01/26 10:32:46;;;;;;;25.95;2.53;;;5.10;99.90;;;;;;5080784;28;20497;-42
2023/01/26 10:35:20;;;;;;;18.45;2.17;;;5.20;99.90;;;;;;5079341;28;20475;-42
2023/01/26 10:37:47;;;;;;;13.70;1.90;;;5.20;99.90;;;;;;5070280;28;20035;-39
2023/01/26 10:40:12;;;;;;;27.40;3.53;;;5.40;99.90;;;;;;5080894;28;20044;-42
2023/01/26 10:42:39;;;;;;;16.67;2.15;;;5.40;99.90;;;;;;5080375;28;20036;-42
2023/01/26 10:45:23;;;;;;;15.32;2.42;;;5.50;99.90;;;;;;5084690;28;20051;-44
2023/01/26 10:48:25;;;;;;;16.10;1.67;;;5.60;99.90;;;;;;5087254;28;20059;-43
2023/01/26 10:50:53;;;;;;;19.93;2.57;;;5.80;99.90;;;;;;5041928;28;20048;-42
2023/01/26 10:53:24;;;;;;;14.77;2.20;;;5.80;99.90;;;;;;5081361;28;20288;-42
2023/01/26 10:56:13;;;;;;;13.35;2.22;;;5.90;99.90;;;;;;5069710;28;20028;-44
2023/01/26 10:59:02;;;;;;;18.30;2.13;;;6.00;99.90;;;;;;5083953;28;20040;-42
2023/01/26 11:01:27;;;;;;;13.90;1.83;;;6.10;99.90;;;;;;5084677;28;20051;-41
2023/01/26 11:04:14;;;;;;;13.45;1.67;;;6.20;99.90;;;;;;5079531;28;20036;-46
2023/01/26 11:06:39;;;;;;;17.52;2.08;;;6.30;99.90;;;;;;5083667;28;20551;-47
2023/01/26 11:09:12;;;;;;;19.88;2.80;;;6.40;99.90;;;;;;5086884;28;20131;-44
2023/01/26 11:11:38;;;;;;;23.35;2.72;;;6.50;99.90;;;;;;5086946;28;20054;-44
2023/01/26 11:14:15;;;;;;;24.52;2.92;;;6.60;99.90;;;;;;5082321;28;20036;-44
2023/01/26 11:16:51;;;;;;;18.88;2.58;;;6.70;99.90;;;;;;5084410;28;20036;-44
2023/01/26 11:19:55;;;;;;;14.35;2.50;;;6.80;99.90;;;;;;5083193;28;20074;-43
2023/01/26 11:22:39;;;;;;;17.48;2.25;;;7.10;99.90;;;;;;5075517;28;20036;-39
2023/01/26 11:25:17;;;;;;;18.25;1.77;;;7.60;99.90;;;;;;5088274;28;20044;-39
2023/01/26 11:27:56;;;;;;;13.27;1.75;;;8.00;99.90;;;;;;5079304;28;20496;-37
2023/01/26 11:30:38;;;;;;;16.35;1.95;;;8.40;99.90;;;;;;5087780;28;20040;-38
2023/01/26 11:33:11;;;;;;;20.50;1.38;;;8.70;99.90;;;;;;5080635;28;20040;-39
2023/01/26 11:36:20;;;;;;;11.40;2.22;;;9.00;99.90;;;;;;5075036;28;20044;-38
2023/01/26 11:39:02;;;;;;;14.25;1.10;;;9.20;99.90;;;;;;5054482;28;20093;-38
2023/01/26 11:42:00;;;;;;;9.75;1.42;;;9.50;99.90;;;;;;5082862;28;20075;-37
2023/01/26 11:44:40;;;;;;;10.50;2.03;;;9.70;99.90;;;;;;5067851;28;20115;-47
2023/01/26 11:47:22;;;;;;;9.00;1.40;;;9.90;99.90;;;;;;5083548;28;20536;-36
2023/01/26 11:49:50;;;;;;;6.45;0.77;;;10.20;99.90;;;;;;5086612;28;20040;-38
2023/01/26 11:52:42;;;;;;;9.63;1.10;;;10.40;99.90;;;;;;5090488;28;20520;-38
2023/01/26 11:55:19;;;;;;;9.52;1.20;;;10.50;99.90;;;;;;5088146;28;20127;-38
2023/01/26 11:58:19;;;;;;;6.53;0.90;;;10.70;99.90;;;;;;5078885;28;20040;-38
2023/01/26 12:00:55;;;;;;;9.52;1.20;;;10.90;99.90;;;;;;5087345;28;20044;-38
2023/01/26 12:03:45;;;;;;;10.25;1.60;;;11.10;99.90;;;;;;5084138;28;20036;-38
2023/01/26 12:06:38;;;;;;;12.45;1.00;;;11.20;99.90;;;;;;5086418;28;20043;-42
2023/01/26 12:09:36;;;;;;;9.10;1.15;;;11.20;99.90;;;;;;5084028;28;20051;-39
2023/01/26 12:12:11;;;;;;;8.27;1.20;;;11.10;99.90;;;;;;5082310;28;20052;-39
2023/01/26 12:14:44;;;;;;;8.18;1.20;;;11.00;99.90;;;;;;5082809;28;20443;-39
2023/01/26 12:17:38;;;;;;;11.63;1.40;;;10.50;99.90;;;;;;5085077;28;20432;-43
2023/01/26 12:20:23;;;;;;;12.38;1.83;;;10.00;99.90;;;;;;5085221;28;20046;-38
2023/01/26 12:23:02;;;;;;;8.98;1.20;;;9.40;99.90;;;;;;5080685;28;20032;-41
2023/01/26 12:25:36;;;;;;;10.85;1.23;;;9.80;99.90;;;;;;5084787;28;20504;-39
2023/01/26 12:28:45;;;;;;;10.07;1.50;;;10.60;99.90;;;;;;5090490;28;20193;-38
2023/01/26 12:31:16;;;;;;;7.45;0.93;;;11.50;99.90;;;;;;5091186;28;20081;-42
2023/01/26 12:33:42;;;;;;;7.40;0.88;;;12.30;99.90;;;;;;5088076;28;20040;-39
2023/01/26 12:36:33;;;;;;;9.13;0.90;;;12.80;99.90;;;;;;5083697;28;20076;-39
2023/01/26 12:39:06;;;;;;;6.15;1.13;;;13.00;99.90;;;;;;5092226;28;20539;-38
2023/01/26 12:41:34;;;;;;;10.40;1.83;;;12.50;99.90;;;;;;5088751;28;20032;-40
2023/01/26 12:44:24;;;;;;;10.38;0.82;;;11.80;99.90;;;;;;5087023;28;20502;-39
2023/01/26 12:46:55;;;;;;;6.47;0.68;;;11.00;99.90;;;;;;5087119;28;20497;-38
2023/01/26 12:49:33;;;;;;;8.25;1.13;;;10.20;99.90;;;;;;5081744;28;20379;-38
2023/01/26 12:52:11;;;;;;;13.27;0.98;;;9.70;99.90;;;;;;5086596;28;20153;-37
2023/01/26 12:54:45;;;;;;;8.85;0.93;;;9.50;99.90;;;;;;5082857;28;20044;-42
2023/01/26 12:57:17;;;;;;;8.70;1.10;;;10.30;99.90;;;;;;5083082;28;20036;-46
2023/01/26 12:59:43;;;;;;;5.53;1.15;;;11.40;99.90;;;;;;5083775;28;20036;-44
2023/01/26 13:02:31;;;;;;;8.82;0.90;;;12.20;99.90;;;;;;5090595;28;20449;-45
2023/01/26 13:05:01;;;;;;;6.55;0.85;;;12.90;99.90;;;;;;5086376;28;20492;-43
2023/01/26 13:07:38;;;;;;;6.55;0.88;;;12.60;99.90;;;;;;5084073;28;20508;-49
2023/01/26 13:10:19;;;;;;;7.50;1.40;;;11.90;99.90;;;;;;5089607;28;20036;-46
2023/01/26 13:12:52;;;;;;;5.90;0.60;;;11.40;99.90;;;;;;5086936;28;20048;-45
2023/01/26 13:15:21;;;;;;;6.38;0.95;;;10.80;99.90;;;;;;5089173;28;20079;-44
2023/01/26 13:17:54;;;;;;;10.23;1.45;;;10.30;99.90;;;;;;5088348;28;20036;-52
2023/01/26 13:20:39;;;;;;;6.30;0.73;;;10.00;99.90;;;;;;5071891;28;20090;-42
2023/01/26 13:23:41;;;;;;;6.53;1.10;;;9.60;99.90;;;;;;5082927;28;20489;-45
2023/01/26 13:26:17;;;;;;;4.97;0.68;;;9.40;99.90;;;;;;5080955;28;20495;-42
2023/01/26 13:28:45;;;;;;;6.57;0.75;;;9.30;99.90;;;;;;5090659;28;20146;-41
2023/01/26 13:31:11;;;;;;;7.05;0.85;;;9.20;99.90;;;;;;5090611;28;20040;-41
2023/01/26 13:33:39;;;;;;;5.95;0.90;;;9.20;99.90;;;;;;5077620;28;20448;-42
2023/01/26 13:36:14;;;;;;;3.70;0.50;;;9.30;99.90;;;;;;5087019;28;20129;-44
2023/01/26 13:38:59;;;;;;;6.72;1.15;;;9.30;99.90;;;;;;5090692;28;20040;-46
2023/01/26 13:41:25;;;;;;;5.38;1.33;;;9.10;99.90;;;;;;5087712;28;20036;-40
2023/01/26 13:44:09;;;;;;;8.90;0.73;;;9.00;99.90;;;;;;5085878;28;20039;-46